createdAt,value
2018-04-01T00:02:24.903Z,6.10
2018-04-01T00:04:52.078Z,6.10
2018-04-01T00:07:19.295Z,6.10
2018-04-01T00:09:46.390Z,6.10
2018-04-01T00:12:13.498Z,6.10
2018-04-01T00:14:40.642Z,6.00
2018-04-01T00:17:07.728Z,6.00
2018-04-01T00:19:35.717Z,6.00
2018-04-01T00:22:02.855Z,5.90
2018-04-01T00:24:29.994Z,5.90
2018-04-01T00:26:57.162Z,5.80
2018-04-01T00:29:24.281Z,5.80
2018-04-01T00:31:51.420Z,5.80
2018-04-01T00:34:18.589Z,5.80
2018-04-01T00:36:45.764Z,5.70
2018-04-01T00:39:12.892Z,5.80
2018-04-01T00:41:40.139Z,5.80
2018-04-01T00:44:07.239Z,5.70
2018-04-01T00:46:35.080Z,5.60
2018-04-01T00:49:02.219Z,5.60
2018-04-01T00:51:29.379Z,5.60
2018-04-01T00:53:56.531Z,5.50
2018-04-01T00:56:24.362Z,5.50
2018-04-01T00:58:51.490Z,5.40
2018-04-01T01:01:18.695Z,5.40
2018-04-01T01:03:45.879Z,5.40
2018-04-01T01:06:13.725Z,5.50
2018-04-01T01:08:40.871Z,5.50
2018-04-01T01:11:08.014Z,5.60
2018-04-01T01:13:35.162Z,5.60
2018-04-01T01:16:02.347Z,5.60
2018-04-01T01:18:29.763Z,5.60
2018-04-01T01:20:56.875Z,5.50
2018-04-01T01:23:24.058Z,5.60
2018-04-01T01:25:51.180Z,5.50
2018-04-01T01:28:18.376Z,5.50
2018-04-01T01:30:45.490Z,5.50
2018-04-01T01:33:12.615Z,5.50
2018-04-01T01:35:39.765Z,5.50
2018-04-01T01:38:06.853Z,5.50
2018-04-01T01:40:33.959Z,5.40
2018-04-01T01:43:04.146Z,5.40
2018-04-01T01:45:32.507Z,5.50
2018-04-01T01:47:59.595Z,5.50
2018-04-01T01:50:27.517Z,5.60
2018-04-01T01:52:54.690Z,5.50
2018-04-01T01:55:21.861Z,5.50
2018-04-01T01:57:49.028Z,5.50
2018-04-01T02:00:16.509Z,5.50
2018-04-01T02:02:43.589Z,5.50
2018-04-01T02:05:10.742Z,5.50
2018-04-01T02:07:38.117Z,5.60
2018-04-01T02:10:06.043Z,5.50
2018-04-01T02:12:33.164Z,5.50
2018-04-01T02:15:01.063Z,5.50
2018-04-01T02:17:28.203Z,5.50
2018-04-01T02:19:55.356Z,5.50
2018-04-01T02:22:22.452Z,5.60
2018-04-01T02:24:49.678Z,5.50
2018-04-01T02:27:16.779Z,5.60
2018-04-01T02:29:44.707Z,5.60
2018-04-01T02:32:11.840Z,5.50
2018-04-01T02:34:38.979Z,5.50
2018-04-01T02:37:06.161Z,5.60
2018-04-01T02:39:33.297Z,5.70
2018-04-01T02:42:00.398Z,5.70
2018-04-01T02:44:28.291Z,5.80
2018-04-01T02:46:55.435Z,5.80
2018-04-01T02:49:22.833Z,5.80
2018-04-01T02:51:49.973Z,5.80
2018-04-01T02:54:17.914Z,5.70
2018-04-01T02:56:45.046Z,5.70
2018-04-01T02:59:12.913Z,5.60
2018-04-01T03:01:40.772Z,5.60
2018-04-01T03:04:07.856Z,5.60
2018-04-01T03:06:34.949Z,5.60
2018-04-01T03:09:02.060Z,5.60
2018-04-01T03:11:29.129Z,5.50
2018-04-01T03:13:56.299Z,5.50
2018-04-01T03:16:23.408Z,5.50
2018-04-01T03:18:50.515Z,5.60
2018-04-01T03:21:18.411Z,5.50
2018-04-01T03:23:45.551Z,5.50
2018-04-01T03:26:12.667Z,5.50
2018-04-01T03:28:39.763Z,5.50
2018-04-01T03:31:06.911Z,5.50
2018-04-01T03:33:34.029Z,5.50
2018-04-01T03:36:01.923Z,5.60
2018-04-01T03:38:29.049Z,5.60
2018-04-01T03:40:57.965Z,5.60
2018-04-01T03:43:25.116Z,5.60
2018-04-01T03:45:52.302Z,5.60
2018-04-01T03:48:19.383Z,5.50
2018-04-01T03:50:46.497Z,5.50
2018-04-01T03:53:13.629Z,5.50
2018-04-01T03:55:40.775Z,5.50
2018-04-01T03:58:07.905Z,5.40
2018-04-01T04:00:35.800Z,5.40
2018-04-01T04:03:02.961Z,5.40
2018-04-01T04:05:30.112Z,5.40
2018-04-01T04:07:57.252Z,5.40
2018-04-01T04:10:24.381Z,5.40
2018-04-01T04:12:51.474Z,5.40
2018-04-01T04:15:18.594Z,5.50
2018-04-01T04:17:45.735Z,5.40
2018-04-01T04:20:12.954Z,5.40
2018-04-01T04:22:40.047Z,5.50
2018-04-01T04:25:07.286Z,5.50
2018-04-01T04:27:34.441Z,5.40
2018-04-01T04:30:01.607Z,5.40
2018-04-01T04:32:28.717Z,5.30
2018-04-01T04:34:55.856Z,5.40
2018-04-01T04:37:23.037Z,5.50
2018-04-01T04:39:51.040Z,5.50
2018-04-01T04:42:18.196Z,5.50
2018-04-01T04:44:45.389Z,5.40
2018-04-01T04:47:13.273Z,5.40
2018-04-01T04:49:40.426Z,5.40
2018-04-01T04:52:07.560Z,5.40
2018-04-01T04:54:34.700Z,5.40
2018-04-01T04:57:01.822Z,5.40
2018-04-01T04:59:29.838Z,5.40
2018-04-01T05:01:57.734Z,5.30
2018-04-01T05:04:24.934Z,5.30
2018-04-01T05:06:52.049Z,5.30
2018-04-01T05:09:19.167Z,5.20
2018-04-01T05:11:47.029Z,5.30
2018-04-01T05:14:14.943Z,5.30
2018-04-01T05:16:42.097Z,5.30
2018-04-01T05:19:09.280Z,5.20
2018-04-01T05:21:36.406Z,5.30
2018-04-01T05:24:03.550Z,5.30
2018-04-01T05:26:30.686Z,5.30
2018-04-01T05:28:57.801Z,5.30
2018-04-01T05:31:24.953Z,5.20
2018-04-01T05:33:53.254Z,5.30
2018-04-01T05:36:20.425Z,5.30
2018-04-01T05:38:47.611Z,5.40
2018-04-01T05:41:14.727Z,5.40
2018-04-01T05:43:41.872Z,5.40
2018-04-01T05:46:08.995Z,5.30
2018-04-01T05:48:36.350Z,5.30
2018-04-01T05:51:03.485Z,5.30
2018-04-01T05:53:31.319Z,5.30
2018-04-01T05:55:58.463Z,5.30
2018-04-01T05:58:25.778Z,5.30
2018-04-01T06:00:52.915Z,5.40
2018-04-01T06:03:20.037Z,5.40
2018-04-01T06:05:47.164Z,5.40
2018-04-01T06:08:14.267Z,5.40
2018-04-01T06:10:41.426Z,5.40
2018-04-01T06:13:08.560Z,5.30
2018-04-01T06:15:35.658Z,5.30
2018-04-01T06:18:02.776Z,5.30
2018-04-01T06:20:29.909Z,5.20
2018-04-01T06:22:57.029Z,5.10
2018-04-01T06:25:24.180Z,5.10
2018-04-01T06:27:51.383Z,5.10
2018-04-01T06:30:18.539Z,5.00
2018-04-01T06:32:45.668Z,5.00
2018-04-01T06:35:12.832Z,5.00
2018-04-01T06:37:39.962Z,4.90
2018-04-01T06:40:07.527Z,4.90
2018-04-01T06:42:34.642Z,5.00
2018-04-01T06:45:01.777Z,5.00
2018-04-01T06:47:28.897Z,4.90
2018-04-01T06:49:56.019Z,4.70
2018-04-01T06:52:23.144Z,4.60
2018-04-01T06:54:50.350Z,4.50
2018-04-01T06:57:17.521Z,4.60
2018-04-01T06:59:44.640Z,4.60
2018-04-01T07:02:11.740Z,4.70
2018-04-01T07:04:38.858Z,4.70
2018-04-01T07:07:05.987Z,4.80
2018-04-01T07:09:33.911Z,4.70
2018-04-01T07:12:01.059Z,4.70
2018-04-01T07:14:28.234Z,4.50
2018-04-01T07:16:55.334Z,4.40
2018-04-01T07:19:22.461Z,4.30
2018-04-01T07:21:49.581Z,4.10
2018-04-01T07:24:17.524Z,4.10
2018-04-01T07:26:44.631Z,4.10
2018-04-01T07:29:11.738Z,4.10
2018-04-01T07:31:39.622Z,4.20
2018-04-01T07:34:06.752Z,4.10
2018-04-01T07:36:33.846Z,4.10
2018-04-01T07:39:00.967Z,4.20
2018-04-01T07:41:28.831Z,4.10
2018-04-01T07:43:56.733Z,4.20
2018-04-01T07:46:23.945Z,4.10
2018-04-01T07:48:52.812Z,4.30
2018-04-01T07:51:19.951Z,4.30
2018-04-01T07:53:47.774Z,4.40
2018-04-01T07:56:14.946Z,4.50
2018-04-01T07:58:42.123Z,4.70
2018-04-01T08:01:09.262Z,4.70
2018-04-01T08:03:36.685Z,4.70
2018-04-01T08:06:04.602Z,4.80
2018-04-01T08:08:31.814Z,4.80
2018-04-01T08:10:59.814Z,5.10
2018-04-01T08:13:26.910Z,5.10
2018-04-01T08:15:54.092Z,5.30
2018-04-01T08:18:21.230Z,5.30
2018-04-01T08:20:48.356Z,5.40
2018-04-01T08:23:15.520Z,5.40
2018-04-01T08:25:42.652Z,5.30
2018-04-01T08:28:10.519Z,5.30
2018-04-01T08:30:38.419Z,5.30
2018-04-01T08:33:05.644Z,5.30
2018-04-01T08:35:32.812Z,5.40
2018-04-01T08:37:59.960Z,5.50
2018-04-01T08:40:27.142Z,5.50
2018-04-01T08:42:54.273Z,5.40
2018-04-01T08:45:21.441Z,5.60
2018-04-01T08:47:49.358Z,5.70
2018-04-01T08:50:18.089Z,5.90
2018-04-01T08:52:45.270Z,5.90
2018-04-01T08:55:12.428Z,6.00
2018-04-01T08:57:39.576Z,6.10
2018-04-01T09:00:06.868Z,6.20
2018-04-01T09:02:34.054Z,6.30
2018-04-01T09:05:01.297Z,6.30
2018-04-01T09:07:28.480Z,6.40
2018-04-01T09:09:55.826Z,6.30
2018-04-01T09:12:24.622Z,6.40
2018-04-01T09:14:51.791Z,6.40
2018-04-01T09:17:18.919Z,6.30
2018-04-01T09:19:46.143Z,6.20
2018-04-01T09:22:13.287Z,6.20
2018-04-01T09:24:40.481Z,6.20
2018-04-01T09:27:07.577Z,6.30
2018-04-01T09:29:34.776Z,6.30
2018-04-01T09:32:01.908Z,6.20
2018-04-01T09:34:29.096Z,6.20
2018-04-01T09:36:56.279Z,6.10
2018-04-01T09:39:24.047Z,6.00
2018-04-01T09:41:51.499Z,6.00
2018-04-01T09:44:18.686Z,5.90
2018-04-01T09:46:45.862Z,5.90
2018-04-01T09:49:12.985Z,5.70
2018-04-01T09:51:40.120Z,5.60
2018-04-01T09:54:07.281Z,5.50
2018-04-01T09:56:34.444Z,5.50
2018-04-01T09:59:01.573Z,5.30
2018-04-01T10:01:30.155Z,5.30
2018-04-01T10:03:57.885Z,5.30
2018-04-01T10:06:25.528Z,5.40
2018-04-01T10:08:53.293Z,5.30
2018-04-01T10:11:20.874Z,5.40
2018-04-01T10:13:48.544Z,5.60
2018-04-01T10:16:16.212Z,5.60
2018-04-01T10:18:43.980Z,5.70
2018-04-01T10:21:11.670Z,5.60
2018-04-01T10:23:39.293Z,5.60
2018-04-01T10:26:07.814Z,5.60
2018-04-01T10:28:35.969Z,5.50
2018-04-01T10:31:03.682Z,5.40
2018-04-01T10:33:31.318Z,5.20
2018-04-01T10:35:58.945Z,5.30
2018-04-01T10:38:26.519Z,5.50
2018-04-01T10:40:54.258Z,5.40
2018-04-01T10:43:22.672Z,5.30
2018-04-01T10:45:50.370Z,5.30
2018-04-01T10:48:18.024Z,5.30
2018-04-01T10:50:45.820Z,5.30
2018-04-01T10:53:14.229Z,5.40
2018-04-01T10:55:41.522Z,5.40
2018-04-01T10:58:08.647Z,5.30
2018-04-01T11:00:35.853Z,5.40
2018-04-01T11:03:02.992Z,5.30
2018-04-01T11:05:30.171Z,5.20
2018-04-01T11:07:58.195Z,5.10
2018-04-01T11:10:25.354Z,5.10
2018-04-01T11:12:52.668Z,5.20
2018-04-01T11:15:19.899Z,5.30
2018-04-01T11:17:48.463Z,5.40
2018-04-01T11:20:15.592Z,5.40
2018-04-01T11:22:42.789Z,5.50
2018-04-01T11:25:09.971Z,5.60
2018-04-01T11:27:37.118Z,5.70
2018-04-01T11:30:04.318Z,5.60
2018-04-01T11:32:31.478Z,5.80
2018-04-01T11:34:59.413Z,5.60
2018-04-01T11:37:26.555Z,5.60
2018-04-01T11:39:53.893Z,5.70
2018-04-01T11:42:20.983Z,5.80
2018-04-01T11:44:48.137Z,5.90
2018-04-01T11:47:15.281Z,6.00
2018-04-01T11:49:43.141Z,6.10
2018-04-01T11:52:10.382Z,6.30
2018-04-01T11:54:37.520Z,6.10
2018-04-01T11:57:04.770Z,6.40
2018-04-01T11:59:31.914Z,6.60
2018-04-01T12:01:59.098Z,6.40
2018-04-01T12:04:26.333Z,6.40
2018-04-01T12:06:53.443Z,6.60
2018-04-01T12:09:21.262Z,6.50
2018-04-01T12:11:48.390Z,6.60
2018-04-01T12:14:15.577Z,6.60
2018-04-01T12:16:42.655Z,6.70
2018-04-01T12:19:09.754Z,6.90
2018-04-01T12:21:37.066Z,6.90
2018-04-01T12:24:04.237Z,6.90
2018-04-01T12:26:31.452Z,6.80
2018-04-01T12:28:58.651Z,6.90
2018-04-01T12:31:25.877Z,6.80
2018-04-01T12:33:52.970Z,6.70
2018-04-01T12:36:20.141Z,6.90
2018-04-01T12:38:47.322Z,6.90
2018-04-01T12:41:15.212Z,7.00
2018-04-01T12:43:42.403Z,7.00
2018-04-01T12:46:09.538Z,7.00
2018-04-01T12:48:36.640Z,7.20
2018-04-01T12:51:03.820Z,7.20
2018-04-01T12:53:31.151Z,7.30
2018-04-01T12:55:58.384Z,7.40
2018-04-01T12:58:26.273Z,7.70
2018-04-01T13:00:53.411Z,7.70
2018-04-01T13:03:20.778Z,7.70
2018-04-01T13:05:48.058Z,7.70
2018-04-01T13:08:15.147Z,7.70
2018-04-01T13:10:43.094Z,7.60
2018-04-01T13:13:10.222Z,7.50
2018-04-01T13:15:37.444Z,7.80
2018-04-01T13:18:04.538Z,7.80
2018-04-01T13:20:31.797Z,7.40
2018-04-01T13:22:58.918Z,7.50
2018-04-01T13:25:26.188Z,7.40
2018-04-01T13:27:53.384Z,7.10
2018-04-01T13:30:21.290Z,7.20
2018-04-01T13:32:49.380Z,7.20
2018-04-01T13:35:16.541Z,7.30
2018-04-01T13:37:43.650Z,7.40
2018-04-01T13:40:10.880Z,7.00
2018-04-01T13:42:38.810Z,7.20
2018-04-01T13:45:05.935Z,7.20
2018-04-01T13:47:33.047Z,7.20
2018-04-01T13:50:00.192Z,7.20
2018-04-01T13:52:27.433Z,7.40
2018-04-01T13:54:55.349Z,7.40
2018-04-01T13:57:22.542Z,7.40
2018-04-01T13:59:49.917Z,7.70
2018-04-01T14:02:17.139Z,7.80
2018-04-01T14:04:44.304Z,7.80
2018-04-01T14:07:11.454Z,7.70
2018-04-01T14:09:38.792Z,7.60
2018-04-01T14:12:05.923Z,7.70
2018-04-01T14:14:33.042Z,7.80
2018-04-01T14:17:00.167Z,7.70
2018-04-01T14:19:27.344Z,7.70
2018-04-01T14:21:54.487Z,7.70
2018-04-01T14:24:21.669Z,7.70
2018-04-01T14:26:48.811Z,7.50
2018-04-01T14:29:16.790Z,7.50
2018-04-01T14:31:44.685Z,7.50
2018-04-01T14:34:11.843Z,7.50
2018-04-01T14:36:39.799Z,7.60
2018-04-01T14:39:06.976Z,7.60
2018-04-01T14:41:34.939Z,7.70
2018-04-01T14:44:02.183Z,7.60
2018-04-01T14:46:29.417Z,7.70
2018-04-01T14:48:56.550Z,7.80
2018-04-01T14:51:23.734Z,7.80
2018-04-01T14:53:50.870Z,8.00
2018-04-01T14:56:18.106Z,8.20
2018-04-01T14:58:45.242Z,8.30
2018-04-01T15:01:12.453Z,8.30
2018-04-01T15:03:39.596Z,8.60
2018-04-01T15:06:06.771Z,8.80
2018-04-01T15:08:33.893Z,9.00
2018-04-01T15:11:01.052Z,9.20
2018-04-01T15:13:28.608Z,9.20
2018-04-01T15:15:55.768Z,9.20
2018-04-01T15:18:23.655Z,8.90
2018-04-01T15:20:50.868Z,8.90
2018-04-01T15:23:17.981Z,8.70
2018-04-01T15:25:45.122Z,8.70
2018-04-01T15:28:12.244Z,8.70
2018-04-01T15:30:40.184Z,8.90
2018-04-01T15:33:07.395Z,9.00
2018-04-01T15:35:34.864Z,9.00
2018-04-01T15:38:02.897Z,9.00
2018-04-01T15:40:30.840Z,9.00
2018-04-01T15:42:58.061Z,9.00
2018-04-01T15:45:25.198Z,9.10
2018-04-01T15:47:52.315Z,9.00
2018-04-01T15:50:19.519Z,8.90
2018-04-01T15:52:46.847Z,8.80
2018-04-01T15:55:13.978Z,8.70
2018-04-01T15:57:41.296Z,8.50
2018-04-01T16:00:08.496Z,8.50
2018-04-01T16:02:35.748Z,8.30
2018-04-01T16:05:02.869Z,8.20
2018-04-01T16:07:30.757Z,8.20
2018-04-01T16:09:57.996Z,8.10
2018-04-01T16:12:25.871Z,8.00
2018-04-01T16:14:53.296Z,8.00
2018-04-01T16:17:21.229Z,8.00
2018-04-01T16:19:48.486Z,8.00
2018-04-01T16:22:15.635Z,8.10
2018-04-01T16:24:42.910Z,8.00
2018-04-01T16:27:10.053Z,8.00
2018-04-01T16:29:37.307Z,7.80
2018-04-01T16:32:04.424Z,7.80
2018-04-01T16:34:31.605Z,7.70
2018-04-01T16:36:58.832Z,7.60
2018-04-01T16:39:26.106Z,7.50
2018-04-01T16:41:53.325Z,7.40
2018-04-01T16:44:20.615Z,7.20
2018-04-01T16:46:47.781Z,7.00
2018-04-01T16:49:15.038Z,7.10
2018-04-01T16:51:42.159Z,7.00
2018-04-01T16:54:09.299Z,6.90
2018-04-01T16:56:36.579Z,6.80
2018-04-01T16:59:03.896Z,6.90
2018-04-01T17:01:31.022Z,7.00
2018-04-01T17:03:58.949Z,7.00
2018-04-01T17:06:26.153Z,6.90
2018-04-01T17:08:53.258Z,6.90
2018-04-01T17:11:20.396Z,6.70
2018-04-01T17:13:47.553Z,6.70
2018-04-01T17:16:15.021Z,6.70
2018-04-01T17:18:42.168Z,6.70
2018-04-01T17:21:09.367Z,6.70
2018-04-01T17:23:36.505Z,6.70
2018-04-01T17:26:03.747Z,6.60
2018-04-01T17:28:32.160Z,6.70
2018-04-01T17:30:59.331Z,6.70
2018-04-01T17:33:26.463Z,6.70
2018-04-01T17:35:53.599Z,6.70
2018-04-01T17:38:20.806Z,6.60
2018-04-01T17:40:47.963Z,6.50
2018-04-01T17:43:15.104Z,6.50
2018-04-01T17:45:42.256Z,6.50
2018-04-01T17:48:09.515Z,6.50
2018-04-01T17:50:36.710Z,6.50
2018-04-01T17:53:03.886Z,6.50
2018-04-01T17:55:31.086Z,6.40
2018-04-01T17:57:59.186Z,6.40
2018-04-01T18:00:26.434Z,6.40
2018-04-01T18:02:53.619Z,6.30
2018-04-01T18:05:20.777Z,6.30
2018-04-01T18:07:47.963Z,6.20
2018-04-01T18:10:15.915Z,6.20
2018-04-01T18:12:43.078Z,6.10
2018-04-01T18:15:10.218Z,6.20
2018-04-01T18:17:37.356Z,6.20
2018-04-01T18:20:04.935Z,6.20
2018-04-01T18:22:32.080Z,6.20
2018-04-01T18:24:59.243Z,6.20
2018-04-01T18:27:27.218Z,6.20
2018-04-01T18:29:55.188Z,6.20
2018-04-01T18:32:22.406Z,6.20
2018-04-01T18:34:49.676Z,6.20
2018-04-01T18:37:16.851Z,6.30
2018-04-01T18:39:44.083Z,6.20
2018-04-01T18:42:12.046Z,6.20
2018-04-01T18:44:39.156Z,6.20
2018-04-01T18:47:06.353Z,6.20
2018-04-01T18:49:34.290Z,6.10
2018-04-01T18:52:01.435Z,6.10
2018-04-01T18:54:28.764Z,6.10
2018-04-01T18:56:55.976Z,6.10
2018-04-01T18:59:23.947Z,6.10
2018-04-01T19:01:51.982Z,6.10
2018-04-01T19:04:19.107Z,6.10
2018-04-01T19:06:46.263Z,6.20
2018-04-01T19:09:13.533Z,6.30
2018-04-01T19:11:40.681Z,6.30
2018-04-01T19:14:07.909Z,6.30
2018-04-01T19:19:30.354Z,6.40
2018-04-01T19:21:58.010Z,6.50
2018-04-01T19:24:25.630Z,6.50
2018-04-01T19:26:53.494Z,6.60
2018-04-01T19:29:21.233Z,6.60
2018-04-01T19:31:48.801Z,6.70
2018-04-01T19:34:16.517Z,6.70
2018-04-01T19:36:44.944Z,6.80
2018-04-01T19:39:12.736Z,6.80
2018-04-01T19:41:40.352Z,6.80
2018-04-01T19:44:08.060Z,6.80
2018-04-01T19:46:35.697Z,6.80
2018-04-01T19:49:03.366Z,6.90
2018-04-01T19:51:31.008Z,7.00
2018-04-01T19:53:58.906Z,6.90
2018-04-01T19:56:27.325Z,6.90
2018-04-01T19:58:55.904Z,6.90
2018-04-01T20:01:24.336Z,7.00
2018-04-01T20:03:51.987Z,7.00
2018-04-01T20:06:19.711Z,7.00
2018-04-01T20:08:48.248Z,7.00
2018-04-01T20:11:16.802Z,7.00
2018-04-01T20:13:44.606Z,7.00
2018-04-01T20:16:12.330Z,7.00
2018-04-01T20:18:40.171Z,7.10
2018-04-01T20:21:07.963Z,7.10
2018-04-01T20:23:35.728Z,7.10
2018-04-01T20:26:03.549Z,7.10
2018-04-01T20:28:31.194Z,7.00
2018-04-01T20:30:58.836Z,7.10
2018-04-01T20:33:26.492Z,7.10
2018-04-01T20:35:54.146Z,7.10
2018-04-01T20:38:21.789Z,7.20
2018-04-01T20:40:49.518Z,7.30
2018-04-01T20:43:17.161Z,7.20
2018-04-01T20:45:44.896Z,7.10
2018-04-01T20:48:12.548Z,7.00
2018-04-01T20:50:40.237Z,7.00
2018-04-01T20:53:07.814Z,7.00
2018-04-01T20:55:35.469Z,6.80
2018-04-01T20:58:03.050Z,6.90
2018-04-01T21:00:30.845Z,6.90
2018-04-01T21:02:58.477Z,6.90
2018-04-01T21:05:26.158Z,7.00
2018-04-01T21:07:54.601Z,7.10
2018-04-01T21:10:22.261Z,7.10
2018-04-01T21:12:50.005Z,7.10
2018-04-01T21:15:17.632Z,7.10
2018-04-01T21:17:45.240Z,7.10
2018-04-01T21:20:12.921Z,7.00
2018-04-01T21:22:40.602Z,7.00
2018-04-01T21:25:09.329Z,7.00
2018-04-01T21:27:37.605Z,7.00
2018-04-01T21:30:05.325Z,6.90
2018-04-01T21:32:33.858Z,6.90
2018-04-01T21:35:01.639Z,6.90
2018-04-01T21:37:29.431Z,6.90
2018-04-01T21:39:58.496Z,7.00
2018-04-01T21:42:26.135Z,7.00
2018-04-01T21:44:53.774Z,6.90
2018-04-01T21:47:22.174Z,7.00
2018-04-01T21:49:49.966Z,7.00
2018-04-01T21:52:17.632Z,7.10
2018-04-01T21:54:45.305Z,7.10
2018-04-01T21:57:12.958Z,7.20
2018-04-01T21:59:40.578Z,7.20
2018-04-01T22:02:09.000Z,7.20
2018-04-01T22:04:36.587Z,7.20
2018-04-01T22:07:05.025Z,7.10
2018-04-01T22:09:32.794Z,7.10
2018-04-01T22:12:00.370Z,7.10
2018-04-01T22:14:28.017Z,7.10
2018-04-01T22:16:55.681Z,7.10
2018-04-01T22:19:23.320Z,7.20
2018-04-01T22:21:50.933Z,7.10
2018-04-01T22:24:18.625Z,7.10
2018-04-01T22:26:47.014Z,7.20
2018-04-01T22:29:15.464Z,7.10
2018-04-01T22:31:43.934Z,7.10
2018-04-01T22:34:11.536Z,7.00
2018-04-01T22:36:39.947Z,7.00
2018-04-01T22:39:07.607Z,7.00
2018-04-01T22:41:35.242Z,7.00
2018-04-01T22:44:03.595Z,6.80
2018-04-01T22:46:31.311Z,6.80
2018-04-01T22:48:58.943Z,6.60
2018-04-01T22:51:27.450Z,6.60
2018-04-01T22:53:55.018Z,6.60
2018-04-01T22:56:22.886Z,6.60
2018-04-01T22:58:50.608Z,6.60
2018-04-01T23:01:18.993Z,6.60
2018-04-01T23:03:46.621Z,6.60
2018-04-01T23:06:14.241Z,6.60
2018-04-01T23:08:41.831Z,6.60
2018-04-01T23:11:09.463Z,6.70
2018-04-01T23:13:37.192Z,6.60
2018-04-01T23:16:04.889Z,6.60
2018-04-01T23:18:32.559Z,6.70
2018-04-01T23:21:00.905Z,6.90
2018-04-01T23:23:28.567Z,6.80
2018-04-01T23:25:56.985Z,6.80
2018-04-01T23:28:24.660Z,6.80
2018-04-01T23:30:52.310Z,6.80
2018-04-01T23:33:19.934Z,6.70
2018-04-01T23:35:48.405Z,6.70
2018-04-01T23:38:16.762Z,6.70
2018-04-01T23:40:44.386Z,6.70
2018-04-01T23:43:12.086Z,6.70
2018-04-01T23:45:39.702Z,6.70
2018-04-01T23:48:07.291Z,6.60
2018-04-01T23:50:35.041Z,6.70
2018-04-01T23:53:02.622Z,6.70
2018-04-01T23:55:30.248Z,6.70
2018-04-01T23:57:57.857Z,6.70
